sensor_id;sensor_type;location;lat;lon;timestamp;pressure;altitude;pressure_sealevel;temperature;humidity
37764;BME280;23602;51.084;7.090;2023-03-12T00:04:09;99801.34;;;-0.51;100.00
37764;BME280;23602;51.084;7.090;2023-03-12T00:06:53;99805.63;;;-0.50;100.00
37764;BME280;23602;51.084;7.090;2023-03-12T00:09:37;99790.09;;;-0.53;100.00
37764;BME280;23602;51.084;7.090;2023-03-12T00:12:10;99790.09;;;-0.53;100.00
37764;BME280;23602;51.084;7.090;2023-03-12T00:14:47;99788.16;;;-0.51;100.00
37764;BME280;23602;51.084;7.090;2023-03-12T00:17:13;99773.44;;;-0.53;100.00
37764;BME280;23602;51.084;7.090;2023-03-12T00:19:41;99757.66;;;-0.45;100.00
37764;BME280;23602;51.084;7.090;2023-03-12T00:22:16;99746.81;;;-0.42;100.00
37764;BME280;23602;51.084;7.090;2023-03-12T00:25:10;99747.66;;;-0.42;100.00
37764;BME280;23602;51.084;7.090;2023-03-12T00:27:40;99746.22;;;-0.36;100.00
37764;BME280;23602;51.084;7.090;2023-03-12T00:30:06;99744.28;;;-0.34;100.00
37764;BME280;23602;51.084;7.090;2023-03-12T00:32:34;99744.44;;;-0.36;100.00
37764;BME280;23602;51.084;7.090;2023-03-12T00:35:10;99755.50;;;-0.32;100.00
37764;BME280;23602;51.084;7.090;2023-03-12T00:37:43;99734.38;;;-0.32;100.00
37764;BME280;23602;51.084;7.090;2023-03-12T00:40:26;99720.72;;;-0.28;100.00
37764;BME280;23602;51.084;7.090;2023-03-12T00:43:02;99724.88;;;-0.25;100.00
37764;BME280;23602;51.084;7.090;2023-03-12T00:45:32;99722.09;;;-0.24;100.00
37764;BME280;23602;51.084;7.090;2023-03-12T00:48:03;99720.44;;;-0.25;100.00
37764;BME280;23602;51.084;7.090;2023-03-12T00:50:28;99718.78;;;-0.26;100.00
37764;BME280;23602;51.084;7.090;2023-03-12T00:53:04;99716.66;;;-0.22;100.00
37764;BME280;23602;51.084;7.090;2023-03-12T00:55:37;99699.84;;;-0.21;100.00
37764;BME280;23602;51.084;7.090;2023-03-12T00:58:05;99703.16;;;-0.19;100.00
37764;BME280;23602;51.084;7.090;2023-03-12T01:00:51;99701.19;;;-0.17;100.00
37764;BME280;23602;51.084;7.090;2023-03-12T01:03:20;99693.25;;;-0.17;100.00
37764;BME280;23602;51.084;7.090;2023-03-12T01:05:48;99701.19;;;-0.17;100.00
37764;BME280;23602;51.084;7.090;2023-03-12T01:08:25;99696.75;;;-0.17;100.00
37764;BME280;23602;51.084;7.090;2023-03-12T01:11:01;99695.06;;;-0.18;100.00
37764;BME280;23602;51.084;7.090;2023-03-12T01:13:48;99698.41;;;-0.16;100.00
37764;BME280;23602;51.084;7.090;2023-03-12T01:16:32;99698.25;;;-0.14;100.00
37764;BME280;23602;51.084;7.090;2023-03-12T01:19:18;99696.44;;;-0.14;100.00
37764;BME280;23602;51.084;7.090;2023-03-12T01:22:01;99698.25;;;-0.14;100.00
37764;BME280;23602;51.084;7.090;2023-03-12T01:24:37;99697.28;;;-0.13;100.00
37764;BME280;23602;51.084;7.090;2023-03-12T01:27:05;99693.63;;;-0.12;100.00
37764;BME280;23602;51.084;7.090;2023-03-12T01:29:33;99683.44;;;-0.07;100.00
37764;BME280;23602;51.084;7.090;2023-03-12T01:32:00;99666.31;;;-0.03;100.00
37764;BME280;23602;51.084;7.090;2023-03-12T01:34:26;99670.25;;;-0.07;100.00
37764;BME280;23602;51.084;7.090;2023-03-12T01:36:51;99668.28;;;-0.05;100.00
37764;BME280;23602;51.084;7.090;2023-03-12T01:39:19;99657.69;;;-0.05;100.00
37764;BME280;23602;51.084;7.090;2023-03-12T01:41:57;99660.88;;;-0.02;100.00
37764;BME280;23602;51.084;7.090;2023-03-12T01:44:30;99656.25;;;0.00;100.00
37764;BME280;23602;51.084;7.090;2023-03-12T01:49:44;99651.44;;;-0.04;100.00
37764;BME280;23602;51.084;7.090;2023-03-12T01:52:11;99652.28;;;-0.04;100.00
37764;BME280;23602;51.084;7.090;2023-03-12T01:55:07;99649.19;;;0.01;100.00
37764;BME280;23602;51.084;7.090;2023-03-12T01:57:36;99643.06;;;0.00;100.00
37764;BME280;23602;51.084;7.090;2023-03-12T02:03:11;99629.34;;;-0.03;100.00
37764;BME280;23602;51.084;7.090;2023-03-12T02:05:45;99632.28;;;-0.06;100.00
37764;BME280;23602;51.084;7.090;2023-03-12T02:08:15;99626.47;;;-0.10;100.00
37764;BME280;23602;51.084;7.090;2023-03-12T02:10:44;99626.34;;;-0.08;100.00
37764;BME280;23602;51.084;7.090;2023-03-12T02:13:19;99617.34;;;-0.15;100.00
37764;BME280;23602;51.084;7.090;2023-03-12T02:15:55;99623.28;;;-0.21;100.00
37764;BME280;23602;51.084;7.090;2023-03-12T02:18:23;99625.91;;;-0.21;100.00
37764;BME280;23602;51.084;7.090;2023-03-12T02:23:37;99631.03;;;-0.20;100.00
37764;BME280;23602;51.084;7.090;2023-03-12T02:26:14;99638.34;;;-0.14;100.00
37764;BME280;23602;51.084;7.090;2023-03-12T02:28:51;99634.72;;;-0.13;100.00
37764;BME280;23602;51.084;7.090;2023-03-12T02:31:20;99631.94;;;-0.11;100.00
37764;BME280;23602;51.084;7.090;2023-03-12T02:33:49;99627.00;;;-0.06;100.00
37764;BME280;23602;51.084;7.090;2023-03-12T02:36:27;99636.56;;;-0.05;100.00
37764;BME280;23602;51.084;7.090;2023-03-12T02:39:15;99639.22;;;-0.05;100.00
37764;BME280;23602;51.084;7.090;2023-03-12T02:41:47;99640.88;;;-0.04;100.00
37764;BME280;23602;51.084;7.090;2023-03-12T02:44:43;99629.84;;;0.00;100.00
37764;BME280;23602;51.084;7.090;2023-03-12T02:47:18;99618.97;;;0.04;100.00
37764;BME280;23602;51.084;7.090;2023-03-12T02:49:43;99626.78;;;0.05;100.00
37764;BME280;23602;51.084;7.090;2023-03-12T02:52:14;99615.56;;;0.11;100.00
37764;BME280;23602;51.084;7.090;2023-03-12T02:54:47;99612.25;;;0.09;100.00
37764;BME280;23602;51.084;7.090;2023-03-12T02:57:15;99607.50;;;0.13;100.00
37764;BME280;23602;51.084;7.090;2023-03-12T02:59:43;99591.84;;;0.19;100.00
37764;BME280;23602;51.084;7.090;2023-03-12T03:02:09;99588.72;;;0.24;100.00
37764;BME280;23602;51.084;7.090;2023-03-12T03:04:36;99588.41;;;0.27;100.00
37764;BME280;23602;51.084;7.090;2023-03-12T03:07:04;99589.38;;;0.26;100.00
37764;BME280;23602;51.084;7.090;2023-03-12T03:09:32;99587.75;;;0.25;100.00
37764;BME280;23602;51.084;7.090;2023-03-12T03:11:58;99596.50;;;0.25;100.00
37764;BME280;23602;51.084;7.090;2023-03-12T03:14:23;99590.06;;;0.28;100.00
37764;BME280;23602;51.084;7.090;2023-03-12T03:16:48;99585.59;;;0.28;100.00
37764;BME280;23602;51.084;7.090;2023-03-12T03:19:14;99578.38;;;0.30;100.00
37764;BME280;23602;51.084;7.090;2023-03-12T03:21:39;99572.06;;;0.31;100.00
37764;BME280;23602;51.084;7.090;2023-03-12T03:24:05;99566.44;;;0.26;100.00
37764;BME280;23602;51.084;7.090;2023-03-12T03:26:30;99563.31;;;0.23;100.00
37764;BME280;23602;51.084;7.090;2023-03-12T03:28:56;99564.75;;;0.17;100.00
37764;BME280;23602;51.084;7.090;2023-03-12T03:31:21;99557.44;;;0.11;100.00
37764;BME280;23602;51.084;7.090;2023-03-12T03:33:54;99577.75;;;0.11;100.00
37764;BME280;23602;51.084;7.090;2023-03-12T03:36:19;99574.31;;;0.10;100.00
37764;BME280;23602;51.084;7.090;2023-03-12T03:38:47;99589.00;;;0.13;100.00
37764;BME280;23602;51.084;7.090;2023-03-12T03:41:17;99580.25;;;0.12;100.00
37764;BME280;23602;51.084;7.090;2023-03-12T03:43:43;99580.75;;;0.16;100.00
37764;BME280;23602;51.084;7.090;2023-03-12T03:46:09;99576.28;;;0.16;100.00
37764;BME280;23602;51.084;7.090;2023-03-12T03:48:35;99578.63;;;0.19;100.00
37764;BME280;23602;51.084;7.090;2023-03-12T03:51:01;99577.31;;;0.23;100.00
37764;BME280;23602;51.084;7.090;2023-03-12T03:53:26;99564.94;;;0.24;100.00
37764;BME280;23602;51.084;7.090;2023-03-12T03:55:52;99572.19;;;0.22;100.00
37764;BME280;23602;51.084;7.090;2023-03-12T03:58:17;99570.22;;;0.24;100.00
37764;BME280;23602;51.084;7.090;2023-03-12T04:00:43;99553.88;;;0.28;100.00
37764;BME280;23602;51.084;7.090;2023-03-12T04:03:09;99560.00;;;0.29;100.00
37764;BME280;23602;51.084;7.090;2023-03-12T04:05:34;99558.88;;;0.31;100.00
37764;BME280;23602;51.084;7.090;2023-03-12T04:08:00;99562.16;;;0.33;100.00
37764;BME280;23602;51.084;7.090;2023-03-12T04:10:27;99559.22;;;0.36;100.00
37764;BME280;23602;51.084;7.090;2023-03-12T04:12:53;99559.22;;;0.36;100.00
37764;BME280;23602;51.084;7.090;2023-03-12T04:15:20;99560.88;;;0.37;100.00
37764;BME280;23602;51.084;7.090;2023-03-12T04:17:46;99556.56;;;0.36;100.00
37764;BME280;23602;51.084;7.090;2023-03-12T04:20:14;99561.19;;;0.34;100.00
37764;BME280;23602;51.084;7.090;2023-03-12T04:22:39;99558.56;;;0.34;100.00
37764;BME280;23602;51.084;7.090;2023-03-12T04:25:05;99557.06;;;0.32;100.00
37764;BME280;23602;51.084;7.090;2023-03-12T04:27:31;99553.56;;;0.31;100.00
37764;BME280;23602;51.084;7.090;2023-03-12T04:30:02;99559.38;;;0.35;100.00
37764;BME280;23602;51.084;7.090;2023-03-12T04:32:27;99547.00;;;0.35;100.00
37764;BME280;23602;51.084;7.090;2023-03-12T04:34:53;99551.28;;;0.36;100.00
37764;BME280;23602;51.084;7.090;2023-03-12T04:37:18;99540.72;;;0.36;100.00
37764;BME280;23602;51.084;7.090;2023-03-12T04:39:44;99536.78;;;0.40;100.00
37764;BME280;23602;51.084;7.090;2023-03-12T04:42:09;99527.72;;;0.43;100.00
37764;BME280;23602;51.084;7.090;2023-03-12T04:44:35;99532.00;;;0.44;100.00
37764;BME280;23602;51.084;7.090;2023-03-12T04:47:05;99529.69;;;0.49;100.00
37764;BME280;23602;51.084;7.090;2023-03-12T04:49:30;99534.16;;;0.48;100.00
37764;BME280;23602;51.084;7.090;2023-03-12T04:51:56;99534.84;;;0.50;100.00
37764;BME280;23602;51.084;7.090;2023-03-12T04:54:21;99535.16;;;0.47;100.00
37764;BME280;23602;51.084;7.090;2023-03-12T04:56:47;99539.78;;;0.45;100.00
37764;BME280;23602;51.084;7.090;2023-03-12T04:59:12;99534.16;;;0.48;100.00
37764;BME280;23602;51.084;7.090;2023-03-12T05:01:38;99523.25;;;0.51;100.00
37764;BME280;23602;51.084;7.090;2023-03-12T05:04:04;99528.53;;;0.51;100.00
37764;BME280;23602;51.084;7.090;2023-03-12T05:06:29;99521.28;;;0.53;100.00
37764;BME280;23602;51.084;7.090;2023-03-12T05:08:55;99509.75;;;0.62;100.00
37764;BME280;23602;51.084;7.090;2023-03-12T05:11:22;99516.00;;;0.61;100.00
37764;BME280;23602;51.084;7.090;2023-03-12T05:13:48;99513.22;;;0.63;100.00
37764;BME280;23602;51.084;7.090;2023-03-12T05:16:13;99512.72;;;0.68;100.00
37764;BME280;23602;51.084;7.090;2023-03-12T05:18:39;99514.41;;;0.69;100.00
37764;BME280;23602;51.084;7.090;2023-03-12T05:21:08;99504.97;;;0.66;100.00
37764;BME280;23602;51.084;7.090;2023-03-12T05:23:35;99498.69;;;0.67;100.00
37764;BME280;23602;51.084;7.090;2023-03-12T05:26:03;99494.56;;;0.73;100.00
37764;BME280;23602;51.084;7.090;2023-03-12T05:28:28;99490.94;;;0.74;100.00
37764;BME280;23602;51.084;7.090;2023-03-12T05:30:55;99490.13;;;0.73;100.00
37764;BME280;23602;51.084;7.090;2023-03-12T05:33:20;99484.16;;;0.71;100.00
37764;BME280;23602;51.084;7.090;2023-03-12T05:35:51;99482.00;;;0.75;100.00
37764;BME280;23602;51.084;7.090;2023-03-12T05:38:17;99478.38;;;0.76;100.00
37764;BME280;23602;51.084;7.090;2023-03-12T05:40:49;99470.78;;;0.73;100.00
37764;BME280;23602;51.084;7.090;2023-03-12T05:43:15;99468.44;;;0.70;100.00
37764;BME280;23602;51.084;7.090;2023-03-12T05:45:44;99466.28;;;0.65;100.00
37764;BME280;23602;51.084;7.090;2023-03-12T05:48:10;99464.47;;;0.66;100.00
37764;BME280;23602;51.084;7.090;2023-03-12T05:50:37;99459.84;;;0.68;100.00
37764;BME280;23602;51.084;7.090;2023-03-12T05:53:03;99459.69;;;0.69;100.00
37764;BME280;23602;51.084;7.090;2023-03-12T05:55:28;99462.00;;;0.72;100.00
37764;BME280;23602;51.084;7.090;2023-03-12T05:57:54;99464.31;;;0.67;100.00
37764;BME280;23602;51.084;7.090;2023-03-12T06:00:19;99452.09;;;0.66;100.00
37764;BME280;23602;51.084;7.090;2023-03-12T06:02:45;99465.81;;;0.70;100.00
37764;BME280;23602;51.084;7.090;2023-03-12T06:05:10;99446.47;;;0.69;100.00
37764;BME280;23602;51.084;7.090;2023-03-12T06:07:36;99444.16;;;0.74;100.00
37764;BME280;23602;51.084;7.090;2023-03-12T06:10:04;99451.28;;;0.74;100.00
37764;BME280;23602;51.084;7.090;2023-03-12T06:12:29;99449.94;;;0.78;100.00
37764;BME280;23602;51.084;7.090;2023-03-12T06:14:56;99456.22;;;0.77;100.00
37764;BME280;23602;51.084;7.090;2023-03-12T06:17:24;99452.41;;;0.79;100.00
37764;BME280;23602;51.084;7.090;2023-03-12T06:19:50;99452.94;;;0.83;100.00
37764;BME280;23602;51.084;7.090;2023-03-12T06:22:16;99459.88;;;0.84;100.00
37764;BME280;23602;51.084;7.090;2023-03-12T06:24:42;99468.47;;;0.86;100.00
37764;BME280;23602;51.084;7.090;2023-03-12T06:27:11;99461.50;;;0.85;100.00
37764;BME280;23602;51.084;7.090;2023-03-12T06:29:39;99452.59;;;0.86;100.00
37764;BME280;23602;51.084;7.090;2023-03-12T06:32:05;99468.16;;;0.89;100.00
37764;BME280;23602;51.084;7.090;2023-03-12T06:34:30;99463.66;;;0.89;100.00
37764;BME280;23602;51.084;7.090;2023-03-12T06:36:56;99462.50;;;0.92;100.00
37764;BME280;23602;51.084;7.090;2023-03-12T06:39:25;99462.34;;;0.85;100.00
37764;BME280;23602;51.084;7.090;2023-03-12T06:41:50;99482.66;;;0.85;100.00
37764;BME280;23602;51.084;7.090;2023-03-12T06:44:16;99482.34;;;0.80;100.00
37764;BME280;23602;51.084;7.090;2023-03-12T06:46:41;99486.31;;;0.84;100.00
37764;BME280;23602;51.084;7.090;2023-03-12T06:49:08;99499.19;;;0.87;100.00
37764;BME280;23602;51.084;7.090;2023-03-12T06:51:36;99499.38;;;0.85;100.00
37764;BME280;23602;51.084;7.090;2023-03-12T06:54:02;99485.34;;;0.93;100.00
37764;BME280;23602;51.084;7.090;2023-03-12T06:56:28;99488.31;;;0.98;100.00
37764;BME280;23602;51.084;7.090;2023-03-12T06:58:53;99489.28;;;1.05;100.00
37764;BME280;23602;51.084;7.090;2023-03-12T07:01:18;99492.13;;;1.11;100.00
37764;BME280;23602;51.084;7.090;2023-03-12T07:03:44;99506.53;;;1.17;100.00
37764;BME280;23602;51.084;7.090;2023-03-12T07:06:14;99512.47;;;1.19;100.00
37764;BME280;23602;51.084;7.090;2023-03-12T07:08:39;99525.34;;;1.30;100.00
37764;BME280;23602;51.084;7.090;2023-03-12T07:11:05;99509.47;;;1.30;100.00
37764;BME280;23602;51.084;7.090;2023-03-12T07:13:30;99501.72;;;1.28;100.00
37764;BME280;23602;51.084;7.090;2023-03-12T07:15:56;99505.19;;;1.29;100.00
37764;BME280;23602;51.084;7.090;2023-03-12T07:18:22;99495.06;;;1.33;100.00
37764;BME280;23602;51.084;7.090;2023-03-12T07:20:50;99496.75;;;1.34;100.00
37764;BME280;23602;51.084;7.090;2023-03-12T07:23:18;99497.25;;;1.37;100.00
37764;BME280;23602;51.084;7.090;2023-03-12T07:25:44;99498.88;;;1.38;100.00
37764;BME280;23602;51.084;7.090;2023-03-12T07:28:10;99494.94;;;1.42;100.00
37764;BME280;23602;51.084;7.090;2023-03-12T07:30:36;99484.16;;;1.44;100.00
37764;BME280;23602;51.084;7.090;2023-03-12T07:33:04;99474.41;;;1.52;100.00
37764;BME280;23602;51.084;7.090;2023-03-12T07:35:32;99479.34;;;1.55;100.00
37764;BME280;23602;51.084;7.090;2023-03-12T07:37:58;99484.94;;;1.68;100.00
37764;BME280;23602;51.084;7.090;2023-03-12T07:40:26;99485.78;;;1.69;100.00
37764;BME280;23602;51.084;7.090;2023-03-12T07:42:51;99479.28;;;1.79;100.00
37764;BME280;23602;51.084;7.090;2023-03-12T07:45:17;99470.34;;;1.80;100.00
37764;BME280;23602;51.084;7.090;2023-03-12T07:47:42;99460.09;;;1.85;100.00
37764;BME280;23602;51.084;7.090;2023-03-12T07:50:10;99459.91;;;1.87;100.00
37764;BME280;23602;51.084;7.090;2023-03-12T07:52:35;99460.38;;;1.90;100.00
37764;BME280;23602;51.084;7.090;2023-03-12T07:55:03;99465.16;;;1.95;100.00
37764;BME280;23602;51.084;7.090;2023-03-12T07:57:29;99458.38;;;2.01;100.00
37764;BME280;23602;51.084;7.090;2023-03-12T07:59:54;99451.59;;;1.98;100.00
37764;BME280;23602;51.084;7.090;2023-03-12T08:02:21;99445.75;;;2.03;100.00
37764;BME280;23602;51.084;7.090;2023-03-12T08:04:54;99445.56;;;2.04;100.00
37764;BME280;23602;51.084;7.090;2023-03-12T08:07:21;99437.47;;;2.06;100.00
37764;BME280;23602;51.084;7.090;2023-03-12T08:09:47;99454.66;;;2.10;100.00
37764;BME280;23602;51.084;7.090;2023-03-12T08:12:13;99451.34;;;2.16;100.00
37764;BME280;23602;51.084;7.090;2023-03-12T08:14:42;99449.97;;;2.20;100.00
37764;BME280;23602;51.084;7.090;2023-03-12T08:17:07;99459.91;;;2.26;100.00
37764;BME280;23602;51.084;7.090;2023-03-12T08:19:33;99456.09;;;2.28;100.00
37764;BME280;23602;51.084;7.090;2023-03-12T08:21:58;99455.06;;;2.29;100.00
37764;BME280;23602;51.084;7.090;2023-03-12T08:24:23;99452.41;;;2.29;100.00
37764;BME280;23602;51.084;7.090;2023-03-12T08:26:51;99465.31;;;2.32;100.00
37764;BME280;23602;51.084;7.090;2023-03-12T08:29:17;99471.47;;;2.33;100.00
37764;BME280;23602;51.084;7.090;2023-03-12T08:31:45;99463.81;;;2.38;100.00
37764;BME280;23602;51.084;7.090;2023-03-12T08:34:10;99462.81;;;2.39;100.00
37764;BME280;23602;51.084;7.090;2023-03-12T08:36:45;99465.09;;;2.42;100.00
37764;BME280;23602;51.084;7.090;2023-03-12T08:39:10;99465.09;;;2.42;100.00
37764;BME280;23602;51.084;7.090;2023-03-12T08:41:36;99479.84;;;2.44;100.00
37764;BME280;23602;51.084;7.090;2023-03-12T08:44:01;99479.16;;;2.50;100.00
37764;BME280;23602;51.084;7.090;2023-03-12T08:46:27;99482.44;;;2.52;100.00
37764;BME280;23602;51.084;7.090;2023-03-12T08:48:54;99499.19;;;2.53;100.00
37764;BME280;23602;51.084;7.090;2023-03-12T08:51:20;99505.00;;;2.57;100.00
37764;BME280;23602;51.084;7.090;2023-03-12T08:53:48;99508.75;;;2.62;100.00
37764;BME280;23602;51.084;7.090;2023-03-12T08:56:14;99517.00;;;2.67;100.00
37764;BME280;23602;51.084;7.090;2023-03-12T08:58:39;99517.97;;;2.74;100.00
37764;BME280;23602;51.084;7.090;2023-03-12T09:01:11;99513.47;;;2.75;100.00
37764;BME280;23602;51.084;7.090;2023-03-12T09:03:37;99518.31;;;2.71;100.00
37764;BME280;23602;51.084;7.090;2023-03-12T09:08:30;99523.59;;;2.79;100.00
37764;BME280;23602;51.084;7.090;2023-03-12T09:10:58;99533.34;;;2.87;100.00
37764;BME280;23602;51.084;7.090;2023-03-12T09:13:26;99529.50;;;2.89;100.00
37764;BME280;23602;51.084;7.090;2023-03-12T09:15:52;99534.16;;;2.87;100.00
37764;BME280;23602;51.084;7.090;2023-03-12T09:18:22;99540.41;;;2.94;100.00
37764;BME280;23602;51.084;7.090;2023-03-12T09:20:47;99539.25;;;2.97;100.00
37764;BME280;23602;51.084;7.090;2023-03-12T09:23:13;99551.03;;;2.94;100.00
37764;BME280;23602;51.084;7.090;2023-03-12T09:25:44;99540.22;;;2.96;100.00
37764;BME280;23602;51.084;7.090;2023-03-12T09:28:12;99562.59;;;3.01;100.00
37764;BME280;23602;51.084;7.090;2023-03-12T09:30:45;99562.94;;;2.98;100.00
37764;BME280;23602;51.084;7.090;2023-03-12T09:33:11;99568.72;;;3.02;100.00
37764;BME280;23602;51.084;7.090;2023-03-12T09:35:39;99574.88;;;3.02;100.00
37764;BME280;23602;51.084;7.090;2023-03-12T09:38:09;99572.81;;;3.12;100.00
37764;BME280;23602;51.084;7.090;2023-03-12T09:40:38;99563.81;;;3.13;100.00
37764;BME280;23602;51.084;7.090;2023-03-12T09:43:20;99575.56;;;3.19;100.00
37764;BME280;23602;51.084;7.090;2023-03-12T09:45:59;99575.53;;;3.27;100.00
37764;BME280;23602;51.084;7.090;2023-03-12T09:48:36;99579.47;;;3.31;100.00
37764;BME280;23602;51.084;7.090;2023-03-12T09:51:32;99576.75;;;3.39;100.00
37764;BME280;23602;51.084;7.090;2023-03-12T09:54:27;99584.97;;;3.52;100.00
37764;BME280;23602;51.084;7.090;2023-03-12T09:56:54;99571.59;;;3.46;100.00
37764;BME280;23602;51.084;7.090;2023-03-12T09:59:22;99577.19;;;3.51;100.00
37764;BME280;23602;51.084;7.090;2023-03-12T10:02:04;99576.16;;;3.52;100.00
37764;BME280;23602;51.084;7.090;2023-03-12T10:11:57;99600.13;;;3.44;100.00
37764;BME280;23602;51.084;7.090;2023-03-12T10:14:45;99611.72;;;3.51;100.00
37764;BME280;23602;51.084;7.090;2023-03-12T10:17:29;99607.78;;;3.61;100.00
37764;BME280;23602;51.084;7.090;2023-03-12T10:30:54;99617.34;;;3.93;100.00
37764;BME280;23602;51.084;7.090;2023-03-12T10:36:17;99622.03;;;4.06;100.00
37764;BME280;23602;51.084;7.090;2023-03-12T10:38:44;99628.63;;;4.10;100.00
37764;BME280;23602;51.084;7.090;2023-03-12T10:41:35;99633.94;;;4.10;100.00
37764;BME280;23602;51.084;7.090;2023-03-12T10:44:02;99633.25;;;4.16;100.00
37764;BME280;23602;51.084;7.090;2023-03-12T10:54:37;99648.84;;;4.33;100.00
37764;BME280;23602;51.084;7.090;2023-03-12T10:57:07;99657.31;;;4.37;100.00
37764;BME280;23602;51.084;7.090;2023-03-12T10:59:36;99658.38;;;4.42;100.00
37764;BME280;23602;51.084;7.090;2023-03-12T11:08:09;99673.19;;;4.60;100.00
37764;BME280;23602;51.084;7.090;2023-03-12T11:10:56;99670.81;;;4.65;100.00
37764;BME280;23602;51.084;7.090;2023-03-12T11:13:42;99678.97;;;4.63;100.00
37764;BME280;23602;51.084;7.090;2023-03-12T11:18:59;99679.50;;;4.73;100.00
37764;BME280;23602;51.084;7.090;2023-03-12T11:21:31;99678.31;;;4.76;100.00
37764;BME280;23602;51.084;7.090;2023-03-12T11:24:13;99672.00;;;4.77;100.00
37764;BME280;23602;51.084;7.090;2023-03-12T11:29:29;99677.31;;;4.91;100.00
37764;BME280;23602;51.084;7.090;2023-03-12T11:34:43;99668.66;;;5.04;100.00
37764;BME280;23602;51.084;7.090;2023-03-12T11:43:16;99666.16;;;5.17;100.00
37764;BME280;23602;51.084;7.090;2023-03-12T11:46:02;99677.28;;;5.21;100.00
37764;BME280;23602;51.084;7.090;2023-03-12T11:54:39;99680.19;;;5.40;100.00
37764;BME280;23602;51.084;7.090;2023-03-12T12:02:33;99683.88;;;5.60;100.00
37764;BME280;23602;51.084;7.090;2023-03-12T12:05:05;99680.22;;;5.61;100.00
37764;BME280;23602;51.084;7.090;2023-03-12T12:18:50;99682.88;;;5.83;100.00
37764;BME280;23602;51.084;7.090;2023-03-12T12:21:34;99685.44;;;5.91;100.00
37764;BME280;23602;51.084;7.090;2023-03-12T12:35:37;99675.72;;;6.53;100.00
37764;BME280;23602;51.084;7.090;2023-03-12T12:38:20;99665.09;;;6.66;100.00
37764;BME280;23602;51.084;7.090;2023-03-12T12:40:54;99668.31;;;6.83;100.00
37764;BME280;23602;51.084;7.090;2023-03-12T12:45:48;99665.34;;;7.06;100.00
37764;BME280;23602;51.084;7.090;2023-03-12T12:48:24;99645.66;;;7.20;100.00
37764;BME280;23602;51.084;7.090;2023-03-12T12:50:58;99648.59;;;7.38;100.00
37764;BME280;23602;51.084;7.090;2023-03-12T12:53:35;99634.81;;;7.41;100.00
37764;BME280;23602;51.084;7.090;2023-03-12T12:56:08;99617.97;;;7.40;100.00
37764;BME280;23602;51.084;7.090;2023-03-12T13:01:31;99610.72;;;7.28;100.00
37764;BME280;23602;51.084;7.090;2023-03-12T13:04:22;99603.75;;;7.27;100.00
37764;BME280;23602;51.084;7.090;2023-03-12T13:09:34;99594.34;;;7.44;100.00
37764;BME280;23602;51.084;7.090;2023-03-12T13:18:06;99574.44;;;7.73;100.00
37764;BME280;23602;51.084;7.090;2023-03-12T13:20:46;99568.44;;;7.71;100.00
37764;BME280;23602;51.084;7.090;2023-03-12T13:23:43;99561.03;;;7.66;100.00
37764;BME280;23602;51.084;7.090;2023-03-12T13:31:54;99553.63;;;7.61;100.00
37764;BME280;23602;51.084;7.090;2023-03-12T13:34:29;99560.22;;;7.59;100.00
37764;BME280;23602;51.084;7.090;2023-03-12T13:37:00;99553.66;;;7.55;100.00
37764;BME280;23602;51.084;7.090;2023-03-12T13:39:35;99566.38;;;7.53;100.00
37764;BME280;23602;51.084;7.090;2023-03-12T13:44:52;99570.88;;;7.46;100.00
37764;BME280;23602;51.084;7.090;2023-03-12T13:47:39;99576.44;;;7.51;100.00
37764;BME280;23602;51.084;7.090;2023-03-12T13:50:14;99575.47;;;7.65;100.00
37764;BME280;23602;51.084;7.090;2023-03-12T13:52:48;99570.72;;;7.87;100.00
37764;BME280;23602;51.084;7.090;2023-03-12T13:55:34;99577.50;;;8.15;100.00
37764;BME280;23602;51.084;7.090;2023-03-12T13:58:11;99578.31;;;8.36;100.00
37764;BME280;23602;51.084;7.090;2023-03-12T14:00:52;99581.16;;;8.54;100.00
37764;BME280;23602;51.084;7.090;2023-03-12T14:03:43;99567.97;;;8.59;100.00
37764;BME280;23602;51.084;7.090;2023-03-12T14:06:15;99554.75;;;8.64;100.00
37764;BME280;23602;51.084;7.090;2023-03-12T14:11:27;99549.56;;;8.82;100.00
37764;BME280;23602;51.084;7.090;2023-03-12T14:16:41;99546.53;;;9.03;100.00
37764;BME280;23602;51.084;7.090;2023-03-12T14:19:13;99549.22;;;9.10;100.00
37764;BME280;23602;51.084;7.090;2023-03-12T14:21:48;99541.75;;;9.12;100.00
37764;BME280;23602;51.084;7.090;2023-03-12T14:27:00;99521.50;;;9.22;100.00
37764;BME280;23602;51.084;7.090;2023-03-12T14:29:27;99506.84;;;9.25;100.00
37764;BME280;23602;51.084;7.090;2023-03-12T14:32:16;99486.22;;;9.25;100.00
37764;BME280;23602;51.084;7.090;2023-03-12T14:37:51;99480.63;;;9.27;100.00
37764;BME280;23602;51.084;7.090;2023-03-12T14:43:00;99443.59;;;9.17;100.00
37764;BME280;23602;51.084;7.090;2023-03-12T14:45:31;99462.34;;;9.17;100.00
37764;BME280;23602;51.084;7.090;2023-03-12T14:50:55;99489.16;;;9.17;100.00
37764;BME280;23602;51.084;7.090;2023-03-12T14:53:33;99467.31;;;9.14;100.00
37764;BME280;23602;51.084;7.090;2023-03-12T14:58:54;99462.00;;;9.07;100.00
37764;BME280;23602;51.084;7.090;2023-03-12T15:01:26;99457.69;;;9.06;100.00
37764;BME280;23602;51.084;7.090;2023-03-12T15:04:05;99463.22;;;9.11;100.00
37764;BME280;23602;51.084;7.090;2023-03-12T15:06:57;99425.84;;;9.16;100.00
37764;BME280;23602;51.084;7.090;2023-03-12T15:09:45;99427.41;;;9.30;100.00
37764;BME280;23602;51.084;7.090;2023-03-12T15:15:18;99411.56;;;9.47;100.00
37764;BME280;23602;51.084;7.090;2023-03-12T15:18:00;99359.19;;;9.44;100.00
37764;BME280;23602;51.084;7.090;2023-03-12T15:20:28;99359.06;;;9.58;100.00
37764;BME280;23602;51.084;7.090;2023-03-12T15:23:05;99378.53;;;9.53;100.00
37764;BME280;23602;51.084;7.090;2023-03-12T15:25:54;99363.69;;;9.50;100.00
37764;BME280;23602;51.084;7.090;2023-03-12T15:28:37;99368.38;;;9.55;100.00
37764;BME280;23602;51.084;7.090;2023-03-12T15:33:42;99364.47;;;9.51;100.00
37764;BME280;23602;51.084;7.090;2023-03-12T15:36:22;99366.22;;;9.45;100.00
37764;BME280;23602;51.084;7.090;2023-03-12T15:39:03;99361.75;;;9.58;100.00
37764;BME280;23602;51.084;7.090;2023-03-12T15:41:34;99364.00;;;9.61;100.00